sensor_id;sensor_type;location;lat;lon;timestamp;P1;durP1;ratioP1;P2;durP2;ratioP2
41687;SDS011;27371;42.686;23.362;2024-03-29T00:00:40;4.25;;;1.38;;
41687;SDS011;27371;42.686;23.362;2024-03-29T00:03:06;2.88;;;0.70;;
41687;SDS011;27371;42.686;23.362;2024-03-29T00:05:35;4.30;;;1.10;;
41687;SDS011;27371;42.686;23.362;2024-03-29T00:08:01;6.22;;;0.82;;
41687;SDS011;27371;42.686;23.362;2024-03-29T00:10:28;3.55;;;0.70;;
41687;SDS011;27371;42.686;23.362;2024-03-29T00:12:53;3.08;;;0.60;;
41687;SDS011;27371;42.686;23.362;2024-03-29T00:15:19;3.72;;;1.58;;
41687;SDS011;27371;42.686;23.362;2024-03-29T00:17:44;8.48;;;2.90;;
41687;SDS011;27371;42.686;23.362;2024-03-29T00:20:10;5.90;;;1.92;;
41687;SDS011;27371;42.686;23.362;2024-03-29T00:22:37;3.22;;;1.65;;
41687;SDS011;27371;42.686;23.362;2024-03-29T00:25:02;6.57;;;1.17;;
41687;SDS011;27371;42.686;23.362;2024-03-29T00:27:28;3.38;;;1.17;;
41687;SDS011;27371;42.686;23.362;2024-03-29T00:29:55;4.15;;;0.95;;
41687;SDS011;27371;42.686;23.362;2024-03-29T00:32:20;3.75;;;0.90;;
41687;SDS011;27371;42.686;23.362;2024-03-29T00:34:48;3.28;;;0.70;;
41687;SDS011;27371;42.686;23.362;2024-03-29T00:37:15;5.25;;;0.80;;
41687;SDS011;27371;42.686;23.362;2024-03-29T00:39:40;3.67;;;0.88;;
41687;SDS011;27371;42.686;23.362;2024-03-29T00:42:06;5.78;;;0.80;;
41687;SDS011;27371;42.686;23.362;2024-03-29T00:44:34;2.63;;;0.70;;
41687;SDS011;27371;42.686;23.362;2024-03-29T00:47:00;3.03;;;0.73;;
41687;SDS011;27371;42.686;23.362;2024-03-29T00:49:26;4.70;;;0.70;;
41687;SDS011;27371;42.686;23.362;2024-03-29T00:51:52;2.25;;;0.60;;
41687;SDS011;27371;42.686;23.362;2024-03-29T00:54:17;4.38;;;1.25;;
41687;SDS011;27371;42.686;23.362;2024-03-29T00:56:44;3.08;;;0.80;;
41687;SDS011;27371;42.686;23.362;2024-03-29T00:59:09;2.58;;;1.00;;
41687;SDS011;27371;42.686;23.362;2024-03-29T01:01:35;2.92;;;0.90;;
41687;SDS011;27371;42.686;23.362;2024-03-29T01:04:00;3.40;;;0.90;;
41687;SDS011;27371;42.686;23.362;2024-03-29T01:06:26;2.80;;;1.13;;
41687;SDS011;27371;42.686;23.362;2024-03-29T01:08:51;3.88;;;1.23;;
41687;SDS011;27371;42.686;23.362;2024-03-29T01:11:17;4.07;;;1.27;;
41687;SDS011;27371;42.686;23.362;2024-03-29T01:13:42;2.88;;;0.98;;
41687;SDS011;27371;42.686;23.362;2024-03-29T01:16:08;3.58;;;0.80;;
41687;SDS011;27371;42.686;23.362;2024-03-29T01:18:33;3.97;;;1.23;;
41687;SDS011;27371;42.686;23.362;2024-03-29T01:20:59;3.92;;;0.85;;
41687;SDS011;27371;42.686;23.362;2024-03-29T01:23:24;2.00;;;0.60;;
41687;SDS011;27371;42.686;23.362;2024-03-29T01:25:50;3.67;;;0.70;;
41687;SDS011;27371;42.686;23.362;2024-03-29T01:28:16;5.13;;;0.90;;
41687;SDS011;27371;42.686;23.362;2024-03-29T01:30:41;2.58;;;0.70;;
41687;SDS011;27371;42.686;23.362;2024-03-29T01:33:07;4.45;;;0.90;;
41687;SDS011;27371;42.686;23.362;2024-03-29T01:35:32;3.70;;;0.80;;
41687;SDS011;27371;42.686;23.362;2024-03-29T01:37:58;2.97;;;1.52;;
41687;SDS011;27371;42.686;23.362;2024-03-29T01:40:23;5.70;;;0.93;;
41687;SDS011;27371;42.686;23.362;2024-03-29T01:42:52;4.35;;;0.98;;
41687;SDS011;27371;42.686;23.362;2024-03-29T01:45:18;5.38;;;0.90;;
41687;SDS011;27371;42.686;23.362;2024-03-29T01:47:44;4.47;;;1.85;;
41687;SDS011;27371;42.686;23.362;2024-03-29T01:50:11;4.53;;;1.80;;
41687;SDS011;27371;42.686;23.362;2024-03-29T01:52:37;6.30;;;1.75;;
41687;SDS011;27371;42.686;23.362;2024-03-29T01:55:03;3.78;;;0.90;;
41687;SDS011;27371;42.686;23.362;2024-03-29T01:57:29;5.57;;;1.08;;
41687;SDS011;27371;42.686;23.362;2024-03-29T01:59:54;2.28;;;0.68;;
41687;SDS011;27371;42.686;23.362;2024-03-29T02:02:21;2.45;;;0.63;;
41687;SDS011;27371;42.686;23.362;2024-03-29T02:04:48;6.18;;;0.98;;
41687;SDS011;27371;42.686;23.362;2024-03-29T02:07:14;3.92;;;0.70;;
41687;SDS011;27371;42.686;23.362;2024-03-29T02:09:40;2.30;;;0.73;;
41687;SDS011;27371;42.686;23.362;2024-03-29T02:12:05;2.88;;;0.68;;
41687;SDS011;27371;42.686;23.362;2024-03-29T02:14:32;3.45;;;0.70;;
41687;SDS011;27371;42.686;23.362;2024-03-29T02:16:58;3.55;;;0.60;;
41687;SDS011;27371;42.686;23.362;2024-03-29T02:19:23;3.15;;;0.73;;
41687;SDS011;27371;42.686;23.362;2024-03-29T02:21:49;5.55;;;0.80;;
41687;SDS011;27371;42.686;23.362;2024-03-29T02:24:20;2.10;;;0.70;;
41687;SDS011;27371;42.686;23.362;2024-03-29T02:26:46;3.17;;;0.80;;
41687;SDS011;27371;42.686;23.362;2024-03-29T02:29:12;2.78;;;0.60;;
41687;SDS011;27371;42.686;23.362;2024-03-29T02:31:37;2.03;;;0.70;;
41687;SDS011;27371;42.686;23.362;2024-03-29T02:34:03;2.83;;;0.90;;
41687;SDS011;27371;42.686;23.362;2024-03-29T02:36:29;4.75;;;1.00;;
41687;SDS011;27371;42.686;23.362;2024-03-29T02:38:54;2.38;;;0.65;;
41687;SDS011;27371;42.686;23.362;2024-03-29T02:41:20;3.17;;;0.50;;
41687;SDS011;27371;42.686;23.362;2024-03-29T02:43:47;3.85;;;0.75;;
41687;SDS011;27371;42.686;23.362;2024-03-29T02:46:15;2.03;;;0.70;;
41687;SDS011;27371;42.686;23.362;2024-03-29T02:48:40;5.20;;;0.68;;
41687;SDS011;27371;42.686;23.362;2024-03-29T02:51:06;4.45;;;1.60;;
41687;SDS011;27371;42.686;23.362;2024-03-29T02:53:32;3.00;;;0.65;;
41687;SDS011;27371;42.686;23.362;2024-03-29T02:55:57;2.55;;;0.65;;
41687;SDS011;27371;42.686;23.362;2024-03-29T02:58:23;4.15;;;0.93;;
41687;SDS011;27371;42.686;23.362;2024-03-29T03:00:49;2.15;;;0.60;;
41687;SDS011;27371;42.686;23.362;2024-03-29T03:03:15;2.47;;;0.98;;
41687;SDS011;27371;42.686;23.362;2024-03-29T03:05:41;5.20;;;0.98;;
41687;SDS011;27371;42.686;23.362;2024-03-29T03:08:07;5.57;;;1.02;;
41687;SDS011;27371;42.686;23.362;2024-03-29T03:10:51;4.10;;;0.73;;
41687;SDS011;27371;42.686;23.362;2024-03-29T03:13:26;2.72;;;0.70;;
41687;SDS011;27371;42.686;23.362;2024-03-29T03:15:55;4.50;;;0.60;;
41687;SDS011;27371;42.686;23.362;2024-03-29T03:18:21;4.30;;;0.80;;
41687;SDS011;27371;42.686;23.362;2024-03-29T03:20:50;3.58;;;0.60;;
41687;SDS011;27371;42.686;23.362;2024-03-29T03:23:19;3.45;;;0.80;;
41687;SDS011;27371;42.686;23.362;2024-03-29T03:26:06;2.83;;;0.80;;
41687;SDS011;27371;42.686;23.362;2024-03-29T03:28:31;2.78;;;0.70;;
41687;SDS011;27371;42.686;23.362;2024-03-29T03:30:57;3.38;;;0.80;;
41687;SDS011;27371;42.686;23.362;2024-03-29T03:33:22;2.45;;;1.00;;
41687;SDS011;27371;42.686;23.362;2024-03-29T03:35:48;5.32;;;1.17;;
41687;SDS011;27371;42.686;23.362;2024-03-29T03:38:14;7.70;;;0.80;;
41687;SDS011;27371;42.686;23.362;2024-03-29T03:40:40;3.03;;;0.77;;
41687;SDS011;27371;42.686;23.362;2024-03-29T03:43:06;3.35;;;0.73;;
41687;SDS011;27371;42.686;23.362;2024-03-29T03:45:35;3.45;;;0.77;;
41687;SDS011;27371;42.686;23.362;2024-03-29T03:48:05;3.30;;;0.80;;
41687;SDS011;27371;42.686;23.362;2024-03-29T03:50:35;5.72;;;1.27;;
41687;SDS011;27371;42.686;23.362;2024-03-29T03:53:01;3.38;;;0.77;;
41687;SDS011;27371;42.686;23.362;2024-03-29T03:55:27;5.07;;;1.10;;
41687;SDS011;27371;42.686;23.362;2024-03-29T03:57:53;4.20;;;1.15;;
41687;SDS011;27371;42.686;23.362;2024-03-29T04:00:19;3.08;;;1.23;;
41687;SDS011;27371;42.686;23.362;2024-03-29T04:02:48;4.35;;;1.13;;
41687;SDS011;27371;42.686;23.362;2024-03-29T04:05:17;2.58;;;0.98;;
41687;SDS011;27371;42.686;23.362;2024-03-29T04:07:44;2.67;;;0.80;;
41687;SDS011;27371;42.686;23.362;2024-03-29T04:10:09;4.35;;;0.88;;
41687;SDS011;27371;42.686;23.362;2024-03-29T04:12:35;4.72;;;1.15;;
41687;SDS011;27371;42.686;23.362;2024-03-29T04:15:01;3.13;;;1.08;;
41687;SDS011;27371;42.686;23.362;2024-03-29T04:17:28;3.58;;;0.98;;
41687;SDS011;27371;42.686;23.362;2024-03-29T04:19:55;5.10;;;0.90;;
41687;SDS011;27371;42.686;23.362;2024-03-29T04:22:22;4.50;;;0.88;;
41687;SDS011;27371;42.686;23.362;2024-03-29T04:24:48;4.95;;;1.30;;
41687;SDS011;27371;42.686;23.362;2024-03-29T04:27:13;5.93;;;1.02;;
41687;SDS011;27371;42.686;23.362;2024-03-29T04:29:39;4.60;;;1.30;;
41687;SDS011;27371;42.686;23.362;2024-03-29T04:32:05;2.25;;;1.20;;
41687;SDS011;27371;42.686;23.362;2024-03-29T04:34:30;6.38;;;1.77;;
41687;SDS011;27371;42.686;23.362;2024-03-29T04:36:56;3.88;;;1.10;;
41687;SDS011;27371;42.686;23.362;2024-03-29T04:39:22;12.77;;;1.60;;
41687;SDS011;27371;42.686;23.362;2024-03-29T04:41:47;8.35;;;1.55;;
41687;SDS011;27371;42.686;23.362;2024-03-29T04:44:13;6.18;;;2.90;;
41687;SDS011;27371;42.686;23.362;2024-03-29T04:46:48;4.90;;;1.67;;
41687;SDS011;27371;42.686;23.362;2024-03-29T04:49:15;4.63;;;1.52;;
41687;SDS011;27371;42.686;23.362;2024-03-29T04:51:42;9.70;;;1.65;;
41687;SDS011;27371;42.686;23.362;2024-03-29T04:54:08;7.35;;;1.73;;
41687;SDS011;27371;42.686;23.362;2024-03-29T04:56:34;7.65;;;1.98;;
41687;SDS011;27371;42.686;23.362;2024-03-29T04:59:01;11.57;;;2.22;;
41687;SDS011;27371;42.686;23.362;2024-03-29T05:01:27;10.05;;;2.53;;
41687;SDS011;27371;42.686;23.362;2024-03-29T05:03:53;7.55;;;1.95;;
41687;SDS011;27371;42.686;23.362;2024-03-29T05:06:19;8.40;;;1.80;;
41687;SDS011;27371;42.686;23.362;2024-03-29T05:08:44;7.18;;;2.38;;
41687;SDS011;27371;42.686;23.362;2024-03-29T05:11:10;8.20;;;2.17;;
41687;SDS011;27371;42.686;23.362;2024-03-29T05:13:39;4.50;;;1.65;;
41687;SDS011;27371;42.686;23.362;2024-03-29T05:16:05;12.10;;;2.67;;
41687;SDS011;27371;42.686;23.362;2024-03-29T05:18:31;11.35;;;2.10;;
41687;SDS011;27371;42.686;23.362;2024-03-29T05:20:56;4.03;;;1.77;;
41687;SDS011;27371;42.686;23.362;2024-03-29T05:23:22;7.10;;;2.13;;
41687;SDS011;27371;42.686;23.362;2024-03-29T05:25:48;9.00;;;2.05;;
41687;SDS011;27371;42.686;23.362;2024-03-29T05:28:14;9.90;;;2.08;;
41687;SDS011;27371;42.686;23.362;2024-03-29T05:30:40;11.35;;;2.72;;
41687;SDS011;27371;42.686;23.362;2024-03-29T05:33:05;6.30;;;1.50;;
41687;SDS011;27371;42.686;23.362;2024-03-29T05:35:32;6.25;;;1.55;;
41687;SDS011;27371;42.686;23.362;2024-03-29T05:37:58;9.63;;;2.00;;
41687;SDS011;27371;42.686;23.362;2024-03-29T05:40:24;10.73;;;1.90;;
41687;SDS011;27371;42.686;23.362;2024-03-29T05:42:53;7.57;;;1.63;;
41687;SDS011;27371;42.686;23.362;2024-03-29T05:45:25;8.10;;;2.20;;
41687;SDS011;27371;42.686;23.362;2024-03-29T05:47:55;8.88;;;2.50;;
41687;SDS011;27371;42.686;23.362;2024-03-29T05:50:22;7.38;;;1.85;;
41687;SDS011;27371;42.686;23.362;2024-03-29T05:52:48;5.70;;;1.80;;
41687;SDS011;27371;42.686;23.362;2024-03-29T05:55:14;4.82;;;1.65;;
41687;SDS011;27371;42.686;23.362;2024-03-29T05:57:40;9.27;;;2.20;;
41687;SDS011;27371;42.686;23.362;2024-03-29T06:02:54;7.00;;;1.80;;
41687;SDS011;27371;42.686;23.362;2024-03-29T06:05:20;8.57;;;1.92;;
41687;SDS011;27371;42.686;23.362;2024-03-29T06:07:45;11.65;;;1.90;;
41687;SDS011;27371;42.686;23.362;2024-03-29T06:10:11;8.63;;;2.22;;
41687;SDS011;27371;42.686;23.362;2024-03-29T06:12:37;9.50;;;2.20;;
41687;SDS011;27371;42.686;23.362;2024-03-29T06:15:05;6.60;;;2.10;;
41687;SDS011;27371;42.686;23.362;2024-03-29T06:17:50;13.48;;;2.10;;
41687;SDS011;27371;42.686;23.362;2024-03-29T06:20:15;13.68;;;2.70;;
41687;SDS011;27371;42.686;23.362;2024-03-29T06:22:41;5.30;;;1.63;;
41687;SDS011;27371;42.686;23.362;2024-03-29T06:25:07;7.10;;;2.33;;
41687;SDS011;27371;42.686;23.362;2024-03-29T06:27:34;11.68;;;2.72;;
41687;SDS011;27371;42.686;23.362;2024-03-29T06:30:02;11.02;;;2.38;;
41687;SDS011;27371;42.686;23.362;2024-03-29T06:32:28;12.20;;;1.67;;
41687;SDS011;27371;42.686;23.362;2024-03-29T06:34:54;12.35;;;2.50;;
41687;SDS011;27371;42.686;23.362;2024-03-29T06:37:20;11.10;;;2.25;;
41687;SDS011;27371;42.686;23.362;2024-03-29T06:39:50;12.00;;;2.10;;
41687;SDS011;27371;42.686;23.362;2024-03-29T06:42:18;10.88;;;2.35;;
41687;SDS011;27371;42.686;23.362;2024-03-29T06:44:44;9.10;;;2.55;;
41687;SDS011;27371;42.686;23.362;2024-03-29T06:47:11;7.10;;;1.77;;
41687;SDS011;27371;42.686;23.362;2024-03-29T06:49:37;9.32;;;2.40;;
41687;SDS011;27371;42.686;23.362;2024-03-29T06:52:02;6.00;;;2.05;;
41687;SDS011;27371;42.686;23.362;2024-03-29T06:54:28;12.80;;;2.25;;
41687;SDS011;27371;42.686;23.362;2024-03-29T06:56:54;4.78;;;2.10;;
41687;SDS011;27371;42.686;23.362;2024-03-29T06:59:20;7.22;;;1.70;;
41687;SDS011;27371;42.686;23.362;2024-03-29T07:01:46;8.05;;;1.63;;
41687;SDS011;27371;42.686;23.362;2024-03-29T07:04:19;6.00;;;1.70;;
41687;SDS011;27371;42.686;23.362;2024-03-29T07:06:45;8.93;;;1.92;;
41687;SDS011;27371;42.686;23.362;2024-03-29T07:09:13;8.95;;;1.58;;
41687;SDS011;27371;42.686;23.362;2024-03-29T07:11:39;12.23;;;1.95;;
41687;SDS011;27371;42.686;23.362;2024-03-29T07:14:05;8.95;;;2.00;;
41687;SDS011;27371;42.686;23.362;2024-03-29T07:16:31;5.50;;;1.48;;
41687;SDS011;27371;42.686;23.362;2024-03-29T07:18:57;3.88;;;1.10;;
41687;SDS011;27371;42.686;23.362;2024-03-29T07:21:23;2.92;;;0.70;;
41687;SDS011;27371;42.686;23.362;2024-03-29T07:23:49;3.75;;;1.02;;
41687;SDS011;27371;42.686;23.362;2024-03-29T07:26:15;3.83;;;1.00;;
41687;SDS011;27371;42.686;23.362;2024-03-29T07:28:40;4.47;;;0.90;;
41687;SDS011;27371;42.686;23.362;2024-03-29T07:31:06;2.35;;;0.73;;
41687;SDS011;27371;42.686;23.362;2024-03-29T07:33:32;9.88;;;1.55;;
41687;SDS011;27371;42.686;23.362;2024-03-29T07:35:58;3.13;;;0.90;;
41687;SDS011;27371;42.686;23.362;2024-03-29T07:38:24;6.05;;;1.05;;
41687;SDS011;27371;42.686;23.362;2024-03-29T07:40:50;8.13;;;1.10;;
41687;SDS011;27371;42.686;23.362;2024-03-29T07:43:16;4.18;;;0.90;;
41687;SDS011;27371;42.686;23.362;2024-03-29T07:45:43;3.15;;;0.73;;
41687;SDS011;27371;42.686;23.362;2024-03-29T07:48:18;5.70;;;2.03;;
41687;SDS011;27371;42.686;23.362;2024-03-29T07:50:45;5.22;;;1.63;;
41687;SDS011;27371;42.686;23.362;2024-03-29T07:53:11;3.30;;;1.60;;
41687;SDS011;27371;42.686;23.362;2024-03-29T07:55:37;6.10;;;1.27;;
41687;SDS011;27371;42.686;23.362;2024-03-29T07:58:06;7.85;;;1.60;;
41687;SDS011;27371;42.686;23.362;2024-03-29T08:00:32;6.57;;;1.10;;
41687;SDS011;27371;42.686;23.362;2024-03-29T08:02:58;4.45;;;1.10;;
41687;SDS011;27371;42.686;23.362;2024-03-29T08:05:24;9.00;;;1.73;;
41687;SDS011;27371;42.686;23.362;2024-03-29T08:07:50;4.82;;;1.40;;
41687;SDS011;27371;42.686;23.362;2024-03-29T08:10:15;4.45;;;1.23;;
41687;SDS011;27371;42.686;23.362;2024-03-29T08:12:41;7.13;;;0.80;;
41687;SDS011;27371;42.686;23.362;2024-03-29T08:15:07;4.38;;;1.30;;
41687;SDS011;27371;42.686;23.362;2024-03-29T08:17:36;4.68;;;0.80;;
41687;SDS011;27371;42.686;23.362;2024-03-29T08:20:01;2.83;;;1.00;;
41687;SDS011;27371;42.686;23.362;2024-03-29T08:22:28;3.38;;;1.10;;
41687;SDS011;27371;42.686;23.362;2024-03-29T08:24:54;3.22;;;0.90;;
41687;SDS011;27371;42.686;23.362;2024-03-29T08:27:20;6.18;;;1.58;;
41687;SDS011;27371;42.686;23.362;2024-03-29T08:29:45;6.68;;;2.10;;
41687;SDS011;27371;42.686;23.362;2024-03-29T08:32:11;2.47;;;1.05;;
41687;SDS011;27371;42.686;23.362;2024-03-29T08:34:38;5.25;;;1.15;;
41687;SDS011;27371;42.686;23.362;2024-03-29T08:37:03;2.75;;;0.90;;
41687;SDS011;27371;42.686;23.362;2024-03-29T08:39:32;7.75;;;1.13;;
41687;SDS011;27371;42.686;23.362;2024-03-29T08:41:58;5.28;;;1.08;;
41687;SDS011;27371;42.686;23.362;2024-03-29T08:44:24;7.13;;;0.98;;
41687;SDS011;27371;42.686;23.362;2024-03-29T08:46:50;4.93;;;1.08;;
41687;SDS011;27371;42.686;23.362;2024-03-29T08:49:16;8.57;;;1.40;;
41687;SDS011;27371;42.686;23.362;2024-03-29T08:51:42;6.53;;;1.48;;
41687;SDS011;27371;42.686;23.362;2024-03-29T08:54:07;3.65;;;1.38;;
41687;SDS011;27371;42.686;23.362;2024-03-29T08:56:33;3.80;;;1.17;;
41687;SDS011;27371;42.686;23.362;2024-03-29T08:59:05;5.38;;;1.55;;
41687;SDS011;27371;42.686;23.362;2024-03-29T09:01:33;3.55;;;0.80;;
41687;SDS011;27371;42.686;23.362;2024-03-29T09:04:01;4.40;;;1.15;;
41687;SDS011;27371;42.686;23.362;2024-03-29T09:06:26;8.55;;;1.60;;
41687;SDS011;27371;42.686;23.362;2024-03-29T09:08:52;5.63;;;1.10;;
41687;SDS011;27371;42.686;23.362;2024-03-29T09:11:17;3.17;;;1.10;;
41687;SDS011;27371;42.686;23.362;2024-03-29T09:13:43;5.43;;;1.33;;
41687;SDS011;27371;42.686;23.362;2024-03-29T09:16:09;4.50;;;2.20;;
41687;SDS011;27371;42.686;23.362;2024-03-29T09:18:35;6.32;;;1.30;;
41687;SDS011;27371;42.686;23.362;2024-03-29T09:21:00;5.78;;;1.10;;
41687;SDS011;27371;42.686;23.362;2024-03-29T09:23:26;7.28;;;0.95;;
41687;SDS011;27371;42.686;23.362;2024-03-29T09:25:54;4.22;;;0.98;;
41687;SDS011;27371;42.686;23.362;2024-03-29T09:28:22;5.05;;;1.00;;
41687;SDS011;27371;42.686;23.362;2024-03-29T09:30:48;8.80;;;1.63;;
41687;SDS011;27371;42.686;23.362;2024-03-29T09:33:13;5.32;;;0.90;;
41687;SDS011;27371;42.686;23.362;2024-03-29T09:35:39;2.83;;;0.90;;
41687;SDS011;27371;42.686;23.362;2024-03-29T09:38:05;3.95;;;1.20;;
41687;SDS011;27371;42.686;23.362;2024-03-29T09:40:31;7.53;;;1.70;;
41687;SDS011;27371;42.686;23.362;2024-03-29T09:42:59;9.23;;;1.70;;
41687;SDS011;27371;42.686;23.362;2024-03-29T09:45:34;5.03;;;1.15;;
41687;SDS011;27371;42.686;23.362;2024-03-29T09:48:04;4.35;;;1.38;;
41687;SDS011;27371;42.686;23.362;2024-03-29T09:50:34;3.28;;;1.30;;
41687;SDS011;27371;42.686;23.362;2024-03-29T09:53:01;3.95;;;1.10;;
41687;SDS011;27371;42.686;23.362;2024-03-29T09:55:27;3.83;;;0.90;;
41687;SDS011;27371;42.686;23.362;2024-03-29T09:57:53;5.10;;;1.05;;
41687;SDS011;27371;42.686;23.362;2024-03-29T10:00:19;2.72;;;1.10;;
41687;SDS011;27371;42.686;23.362;2024-03-29T10:02:45;2.75;;;0.90;;
41687;SDS011;27371;42.686;23.362;2024-03-29T10:05:15;3.53;;;1.00;;
41687;SDS011;27371;42.686;23.362;2024-03-29T10:07:42;5.30;;;1.00;;
41687;SDS011;27371;42.686;23.362;2024-03-29T10:10:10;3.83;;;1.08;;
41687;SDS011;27371;42.686;23.362;2024-03-29T10:12:36;4.13;;;1.10;;
41687;SDS011;27371;42.686;23.362;2024-03-29T10:15:02;5.78;;;2.05;;
41687;SDS011;27371;42.686;23.362;2024-03-29T10:17:39;6.90;;;1.50;;
41687;SDS011;27371;42.686;23.362;2024-03-29T10:20:09;4.22;;;1.00;;
41687;SDS011;27371;42.686;23.362;2024-03-29T10:22:39;3.15;;;0.95;;
41687;SDS011;27371;42.686;23.362;2024-03-29T10:25:06;2.85;;;0.90;;
41687;SDS011;27371;42.686;23.362;2024-03-29T10:27:32;4.78;;;0.88;;
41687;SDS011;27371;42.686;23.362;2024-03-29T10:29:58;2.60;;;0.88;;
41687;SDS011;27371;42.686;23.362;2024-03-29T10:32:24;3.22;;;0.90;;
41687;SDS011;27371;42.686;23.362;2024-03-29T10:34:50;7.00;;;1.20;;
41687;SDS011;27371;42.686;23.362;2024-03-29T10:37:16;4.55;;;1.05;;
41687;SDS011;27371;42.686;23.362;2024-03-29T10:39:49;7.97;;;1.02;;
41687;SDS011;27371;42.686;23.362;2024-03-29T10:42:15;5.70;;;1.00;;
41687;SDS011;27371;42.686;23.362;2024-03-29T10:44:43;6.63;;;1.20;;
41687;SDS011;27371;42.686;23.362;2024-03-29T10:47:09;3.85;;;0.93;;
41687;SDS011;27371;42.686;23.362;2024-03-29T10:49:42;7.68;;;1.10;;
41687;SDS011;27371;42.686;23.362;2024-03-29T10:52:09;7.82;;;1.33;;
41687;SDS011;27371;42.686;23.362;2024-03-29T10:54:38;4.97;;;1.10;;
41687;SDS011;27371;42.686;23.362;2024-03-29T10:57:06;4.28;;;0.85;;
41687;SDS011;27371;42.686;23.362;2024-03-29T10:59:49;8.45;;;1.67;;
41687;SDS011;27371;42.686;23.362;2024-03-29T11:02:29;7.40;;;1.70;;
41687;SDS011;27371;42.686;23.362;2024-03-29T11:04:57;4.88;;;1.48;;
41687;SDS011;27371;42.686;23.362;2024-03-29T11:07:31;9.80;;;1.92;;
41687;SDS011;27371;42.686;23.362;2024-03-29T11:10:03;5.72;;;1.95;;
41687;SDS011;27371;42.686;23.362;2024-03-29T11:12:30;10.07;;;1.33;;
41687;SDS011;27371;42.686;23.362;2024-03-29T11:15:04;7.60;;;1.13;;
41687;SDS011;27371;42.686;23.362;2024-03-29T11:17:35;4.90;;;1.23;;
41687;SDS011;27371;42.686;23.362;2024-03-29T11:20:02;6.35;;;1.80;;
41687;SDS011;27371;42.686;23.362;2024-03-29T11:22:29;5.40;;;1.05;;
41687;SDS011;27371;42.686;23.362;2024-03-29T11:24:55;5.05;;;1.17;;
41687;SDS011;27371;42.686;23.362;2024-03-29T11:27:24;9.38;;;1.63;;
41687;SDS011;27371;42.686;23.362;2024-03-29T11:29:49;3.75;;;1.25;;
41687;SDS011;27371;42.686;23.362;2024-03-29T11:32:36;5.15;;;1.15;;
41687;SDS011;27371;42.686;23.362;2024-03-29T11:35:04;6.03;;;1.15;;
41687;SDS011;27371;42.686;23.362;2024-03-29T11:37:30;4.30;;;1.27;;
41687;SDS011;27371;42.686;23.362;2024-03-29T11:39:59;7.95;;;1.35;;
41687;SDS011;27371;42.686;23.362;2024-03-29T11:45:12;3.87;;;1.30;;
41687;SDS011;27371;42.686;23.362;2024-03-29T11:47:39;7.68;;;1.58;;
41687;SDS011;27371;42.686;23.362;2024-03-29T11:50:07;4.15;;;1.08;;
41687;SDS011;27371;42.686;23.362;2024-03-29T11:52:33;6.95;;;1.33;;
41687;SDS011;27371;42.686;23.362;2024-03-29T11:54:59;6.75;;;1.05;;
41687;SDS011;27371;42.686;23.362;2024-03-29T11:57:25;3.85;;;1.13;;
41687;SDS011;27371;42.686;23.362;2024-03-29T11:59:50;7.13;;;1.10;;
41687;SDS011;27371;42.686;23.362;2024-03-29T12:02:16;3.33;;;0.88;;
41687;SDS011;27371;42.686;23.362;2024-03-29T12:04:42;3.92;;;1.20;;
41687;SDS011;27371;42.686;23.362;2024-03-29T12:07:08;5.90;;;1.30;;
41687;SDS011;27371;42.686;23.362;2024-03-29T12:09:33;2.65;;;0.80;;
41687;SDS011;27371;42.686;23.362;2024-03-29T12:12:00;4.60;;;1.23;;
41687;SDS011;27371;42.686;23.362;2024-03-29T12:14:31;7.03;;;0.77;;
41687;SDS011;27371;42.686;23.362;2024-03-29T12:17:00;6.15;;;1.30;;
41687;SDS011;27371;42.686;23.362;2024-03-29T12:19:27;4.95;;;1.00;;
41687;SDS011;27371;42.686;23.362;2024-03-29T12:21:53;3.67;;;1.00;;
41687;SDS011;27371;42.686;23.362;2024-03-29T12:24:20;5.15;;;1.40;;
41687;SDS011;27371;42.686;23.362;2024-03-29T12:26:47;4.90;;;0.90;;
41687;SDS011;27371;42.686;23.362;2024-03-29T12:29:14;6.88;;;1.75;;
41687;SDS011;27371;42.686;23.362;2024-03-29T12:31:40;6.35;;;1.17;;
41687;SDS011;27371;42.686;23.362;2024-03-29T12:34:06;8.10;;;1.45;;
41687;SDS011;27371;42.686;23.362;2024-03-29T12:36:32;4.22;;;0.80;;
41687;SDS011;27371;42.686;23.362;2024-03-29T12:38:58;2.55;;;0.82;;
41687;SDS011;27371;42.686;23.362;2024-03-29T12:41:31;4.18;;;1.10;;
41687;SDS011;27371;42.686;23.362;2024-03-29T12:43:57;5.28;;;1.35;;
41687;SDS011;27371;42.686;23.362;2024-03-29T12:46:23;4.78;;;1.10;;
41687;SDS011;27371;42.686;23.362;2024-03-29T12:49:00;5.60;;;1.55;;
41687;SDS011;27371;42.686;23.362;2024-03-29T12:51:26;4.50;;;1.50;;
41687;SDS011;27371;42.686;23.362;2024-03-29T12:53:54;3.80;;;0.98;;
41687;SDS011;27371;42.686;23.362;2024-03-29T12:56:20;6.07;;;1.08;;
41687;SDS011;27371;42.686;23.362;2024-03-29T12:58:46;4.05;;;1.27;;
41687;SDS011;27371;42.686;23.362;2024-03-29T13:01:11;2.30;;;1.00;;
41687;SDS011;27371;42.686;23.362;2024-03-29T13:03:37;4.15;;;0.82;;
41687;SDS011;27371;42.686;23.362;2024-03-29T13:06:05;3.78;;;1.13;;
41687;SDS011;27371;42.686;23.362;2024-03-29T13:08:31;7.72;;;1.10;;
41687;SDS011;27371;42.686;23.362;2024-03-29T13:10:57;5.88;;;1.05;;
41687;SDS011;27371;42.686;23.362;2024-03-29T13:13:23;6.72;;;1.20;;
41687;SDS011;27371;42.686;23.362;2024-03-29T13:15:48;3.00;;;0.90;;
41687;SDS011;27371;42.686;23.362;2024-03-29T13:18:16;7.88;;;1.30;;
41687;SDS011;27371;42.686;23.362;2024-03-29T13:20:43;4.82;;;1.30;;
41687;SDS011;27371;42.686;23.362;2024-03-29T13:23:09;4.78;;;1.17;;
41687;SDS011;27371;42.686;23.362;2024-03-29T13:25:34;3.65;;;0.75;;
41687;SDS011;27371;42.686;23.362;2024-03-29T13:28:00;3.97;;;0.80;;
41687;SDS011;27371;42.686;23.362;2024-03-29T13:30:26;5.25;;;0.85;;
41687;SDS011;27371;42.686;23.362;2024-03-29T13:32:52;6.28;;;1.10;;
41687;SDS011;27371;42.686;23.362;2024-03-29T13:35:18;3.97;;;1.00;;
41687;SDS011;27371;42.686;23.362;2024-03-29T13:37:47;4.55;;;1.05;;
41687;SDS011;27371;42.686;23.362;2024-03-29T13:40:17;5.68;;;1.35;;
41687;SDS011;27371;42.686;23.362;2024-03-29T13:42:43;6.57;;;0.70;;
41687;SDS011;27371;42.686;23.362;2024-03-29T13:45:10;5.05;;;1.08;;
41687;SDS011;27371;42.686;23.362;2024-03-29T13:47:41;5.85;;;0.93;;
41687;SDS011;27371;42.686;23.362;2024-03-29T13:50:08;2.58;;;0.75;;
41687;SDS011;27371;42.686;23.362;2024-03-29T13:52:35;6.47;;;1.55;;
41687;SDS011;27371;42.686;23.362;2024-03-29T13:55:01;4.25;;;1.15;;
41687;SDS011;27371;42.686;23.362;2024-03-29T13:57:30;4.07;;;0.95;;
41687;SDS011;27371;42.686;23.362;2024-03-29T14:00:00;4.88;;;1.02;;
41687;SDS011;27371;42.686;23.362;2024-03-29T14:02:26;5.63;;;1.00;;
41687;SDS011;27371;42.686;23.362;2024-03-29T14:04:53;9.77;;;1.42;;
41687;SDS011;27371;42.686;23.362;2024-03-29T14:07:19;5.00;;;0.70;;
41687;SDS011;27371;42.686;23.362;2024-03-29T14:09:45;4.70;;;0.88;;
41687;SDS011;27371;42.686;23.362;2024-03-29T14:12:11;7.15;;;0.90;;
41687;SDS011;27371;42.686;23.362;2024-03-29T14:14:38;7.20;;;1.13;;
41687;SDS011;27371;42.686;23.362;2024-03-29T14:17:04;6.60;;;0.90;;
41687;SDS011;27371;42.686;23.362;2024-03-29T14:19:32;2.58;;;0.73;;
41687;SDS011;27371;42.686;23.362;2024-03-29T14:21:59;3.92;;;1.08;;
41687;SDS011;27371;42.686;23.362;2024-03-29T14:24:25;2.70;;;0.70;;
41687;SDS011;27371;42.686;23.362;2024-03-29T14:26:50;6.35;;;1.20;;
41687;SDS011;27371;42.686;23.362;2024-03-29T14:29:20;4.22;;;1.05;;
41687;SDS011;27371;42.686;23.362;2024-03-29T14:31:49;4.20;;;0.90;;
41687;SDS011;27371;42.686;23.362;2024-03-29T14:34:15;5.95;;;1.10;;
41687;SDS011;27371;42.686;23.362;2024-03-29T14:36:42;7.32;;;0.82;;